createdAt,value
2023-03-25T00:01:18.233Z,18.16
2023-03-25T00:03:50.462Z,18.15
2023-03-25T00:06:17.309Z,18.15
2023-03-25T00:08:43.907Z,18.14
2023-03-25T00:11:10.474Z,18.12
2023-03-25T00:13:37.240Z,18.12
2023-03-25T00:16:04.481Z,18.11
2023-03-25T00:18:34.243Z,18.11
2023-03-25T00:21:02.551Z,18.10
2023-03-25T00:23:31.139Z,18.09
2023-03-25T00:26:00.637Z,18.08
2023-03-25T00:28:33.253Z,18.06
2023-03-25T00:31:01.840Z,18.06
2023-03-25T00:33:29.195Z,18.05
2023-03-25T00:36:01.858Z,18.04
2023-03-25T00:38:33.582Z,18.05
2023-03-25T00:41:11.944Z,18.04
2023-03-25T00:43:38.801Z,18.04
2023-03-25T00:46:05.470Z,18.04
2023-03-25T00:48:32.014Z,18.03
2023-03-25T00:50:58.741Z,18.02
2023-03-25T00:53:25.447Z,18.02
2023-03-25T00:55:56.995Z,18.00
2023-03-25T00:58:23.502Z,18.01
2023-03-25T01:00:50.573Z,17.99
2023-03-25T01:03:17.198Z,17.99
2023-03-25T01:05:43.746Z,17.99
2023-03-25T01:08:11.143Z,17.99
2023-03-25T01:10:38.043Z,17.98
2023-03-25T01:13:04.550Z,17.98
2023-03-25T01:15:31.167Z,17.98
2023-03-25T01:17:57.733Z,17.98
2023-03-25T01:20:24.321Z,17.97
2023-03-25T01:22:50.897Z,17.97
2023-03-25T01:25:17.481Z,17.97
2023-03-25T01:27:44.196Z,17.96
2023-03-25T01:30:11.534Z,17.96
2023-03-25T01:32:38.135Z,17.96
2023-03-25T01:35:06.387Z,17.94
2023-03-25T01:37:34.174Z,17.94
2023-03-25T01:40:00.704Z,17.93
2023-03-25T01:42:27.205Z,17.92
2023-03-25T01:44:53.678Z,17.91
2023-03-25T01:47:20.364Z,17.90
2023-03-25T01:49:47.079Z,17.90
2023-03-25T01:52:21.315Z,17.87
2023-03-25T01:54:50.269Z,17.88
2023-03-25T01:57:20.674Z,17.86
2023-03-25T01:59:47.957Z,17.85
2023-03-25T02:02:17.741Z,17.85
2023-03-25T02:05:01.979Z,17.84
2023-03-25T02:07:32.524Z,17.84
2023-03-25T02:10:06.674Z,17.82
2023-03-25T02:12:33.622Z,17.81
2023-03-25T02:15:02.809Z,17.81
2023-03-25T02:17:47.663Z,17.79
2023-03-25T02:21:03.638Z,17.78
2023-03-25T02:23:57.987Z,17.78
2023-03-25T02:26:29.755Z,17.75
2023-03-25T02:29:28.142Z,17.78
2023-03-25T02:31:54.654Z,17.78
2023-03-25T02:34:49.081Z,17.75
2023-03-25T02:37:53.226Z,17.74
2023-03-25T02:40:25.791Z,17.74
2023-03-25T02:43:00.227Z,17.74
2023-03-25T02:45:33.820Z,17.74
2023-03-25T02:48:18.301Z,17.72
2023-03-25T02:50:52.344Z,17.72
2023-03-25T02:53:26.006Z,17.72
2023-03-25T02:55:57.523Z,17.73
2023-03-25T02:58:25.123Z,17.71
2023-03-25T03:00:53.475Z,17.71
2023-03-25T03:03:20.490Z,17.71
2023-03-25T03:05:51.581Z,17.71
2023-03-25T03:08:27.190Z,17.70
2023-03-25T03:11:15.395Z,17.69
2023-03-25T03:14:34.418Z,17.68
2023-03-25T03:17:07.112Z,17.70
2023-03-25T03:19:40.489Z,17.68
2023-03-25T03:22:35.324Z,17.66
2023-03-25T03:25:34.712Z,17.67
2023-03-25T03:28:01.452Z,17.67
2023-03-25T03:30:43.077Z,17.66
2023-03-25T03:33:25.418Z,17.63
2023-03-25T03:36:02.123Z,17.64
2023-03-25T03:38:34.828Z,17.62
2023-03-25T03:41:06.627Z,17.61
2023-03-25T03:43:45.204Z,17.60
2023-03-25T03:46:22.636Z,17.58
2023-03-25T03:48:55.189Z,17.58
2023-03-25T03:51:41.568Z,17.56
2023-03-25T03:54:23.507Z,17.54
2023-03-25T03:57:01.826Z,17.53
2023-03-25T03:59:35.198Z,17.52
2023-03-25T04:02:08.977Z,17.52
2023-03-25T04:04:38.838Z,17.51
2023-03-25T04:07:17.048Z,17.52
2023-03-25T04:09:57.193Z,17.51
2023-03-25T04:12:35.167Z,17.51
2023-03-25T04:15:03.607Z,17.49
2023-03-25T04:17:32.870Z,17.49
2023-03-25T04:20:00.487Z,17.48
2023-03-25T04:22:26.990Z,17.48
2023-03-25T04:24:55.031Z,17.48
2023-03-25T04:27:23.147Z,17.48
2023-03-25T04:29:51.772Z,17.47
2023-03-25T04:32:18.748Z,17.48
2023-03-25T04:34:46.910Z,17.47
2023-03-25T04:37:13.914Z,17.47
2023-03-25T04:39:40.532Z,17.47
2023-03-25T04:42:07.087Z,17.47
2023-03-25T04:44:33.914Z,17.47
2023-03-25T04:47:02.245Z,17.47
2023-03-25T04:49:28.746Z,17.48
2023-03-25T04:51:56.873Z,17.47
2023-03-25T04:54:23.997Z,17.47
2023-03-25T04:56:52.127Z,17.47
2023-03-25T04:59:21.069Z,17.48
2023-03-25T05:01:48.401Z,17.48
2023-03-25T05:04:17.181Z,17.47
2023-03-25T05:06:46.937Z,17.49
2023-03-25T05:09:16.308Z,17.48
2023-03-25T05:11:43.139Z,17.48
2023-03-25T05:14:11.228Z,17.47
2023-03-25T05:16:38.073Z,17.48
2023-03-25T05:19:06.615Z,17.48
2023-03-25T05:21:36.043Z,17.47
2023-03-25T05:24:03.807Z,17.48
2023-03-25T05:26:34.309Z,17.48
2023-03-25T05:29:05.271Z,17.49
2023-03-25T05:31:31.955Z,17.49
2023-03-25T05:33:58.546Z,17.49
2023-03-25T05:36:26.184Z,17.49
2023-03-25T05:38:55.202Z,17.49
2023-03-25T05:41:22.878Z,17.49
2023-03-25T05:43:50.864Z,17.48
2023-03-25T05:46:19.170Z,17.47
2023-03-25T05:48:46.152Z,17.48
2023-03-25T05:51:16.224Z,17.46
2023-03-25T05:53:50.041Z,17.47
2023-03-25T05:56:19.237Z,17.45
2023-03-25T05:58:47.298Z,17.47
2023-03-25T06:01:31.297Z,17.46
2023-03-25T06:04:03.453Z,17.47
2023-03-25T06:06:32.390Z,17.46
2023-03-25T06:08:59.518Z,17.48
2023-03-25T06:11:26.081Z,17.49
2023-03-25T06:13:54.076Z,17.49
2023-03-25T06:16:23.383Z,17.49
2023-03-25T06:18:56.024Z,17.49
2023-03-25T06:21:32.929Z,17.48
2023-03-25T06:24:01.708Z,17.49
2023-03-25T06:26:28.382Z,17.49
2023-03-25T06:28:55.017Z,17.49
2023-03-25T06:31:33.156Z,17.48
2023-03-25T06:33:59.726Z,17.47
2023-03-25T06:36:26.265Z,17.48
2023-03-25T06:38:53.680Z,17.46
2023-03-25T06:41:20.912Z,17.46
2023-03-25T06:43:48.982Z,17.46
2023-03-25T06:46:16.466Z,17.46
2023-03-25T06:48:42.984Z,17.48
2023-03-25T06:51:09.531Z,17.47
2023-03-25T06:53:36.108Z,17.47
2023-03-25T06:56:02.808Z,17.48
2023-03-25T06:58:34.830Z,17.47
2023-03-25T07:01:06.631Z,17.47
2023-03-25T07:03:34.143Z,17.47
2023-03-25T07:06:00.770Z,17.48
2023-03-25T07:08:27.354Z,17.48
2023-03-25T07:10:53.907Z,17.49
2023-03-25T07:13:20.394Z,17.50
2023-03-25T07:15:47.034Z,17.52
2023-03-25T07:18:16.085Z,17.54
2023-03-25T07:20:46.481Z,17.56
2023-03-25T07:23:13.479Z,17.59
2023-03-25T07:25:40.001Z,17.63
2023-03-25T07:28:06.564Z,17.69
2023-03-25T07:30:33.074Z,17.75
2023-03-25T07:32:59.715Z,17.85
2023-03-25T07:35:26.304Z,17.97
2023-03-25T07:37:52.958Z,18.12
2023-03-25T07:40:19.480Z,18.28
2023-03-25T07:42:46.037Z,18.42
2023-03-25T07:45:12.826Z,18.54
2023-03-25T07:47:39.452Z,18.65
2023-03-25T07:50:06.833Z,18.71
2023-03-25T07:52:33.491Z,18.78
2023-03-25T07:55:00.926Z,18.79
2023-03-25T07:57:27.563Z,18.81
2023-03-25T07:59:54.095Z,18.82
2023-03-25T08:02:20.946Z,18.84
2023-03-25T08:04:47.547Z,18.84
2023-03-25T08:07:14.052Z,18.85
2023-03-25T08:09:41.476Z,18.85
2023-03-25T08:12:09.109Z,18.85
2023-03-25T08:14:35.817Z,18.84
2023-03-25T08:17:02.315Z,18.83
2023-03-25T08:19:28.914Z,18.85
2023-03-25T08:21:55.983Z,18.86
2023-03-25T08:24:24.530Z,18.87
2023-03-25T08:26:51.062Z,18.88
2023-03-25T08:29:17.890Z,18.91
2023-03-25T08:31:46.606Z,18.93
2023-03-25T08:34:13.781Z,18.94
2023-03-25T08:36:40.369Z,18.97
2023-03-25T08:39:11.684Z,18.97
2023-03-25T08:41:39.668Z,18.98
2023-03-25T08:44:07.298Z,18.99
2023-03-25T08:46:33.856Z,18.99
2023-03-25T08:49:01.211Z,18.98
2023-03-25T08:51:27.746Z,18.99
2023-03-25T08:53:54.394Z,19.01
2023-03-25T08:56:20.934Z,19.01
2023-03-25T08:58:47.453Z,19.02
2023-03-25T09:01:14.172Z,19.02
2023-03-25T09:03:41.075Z,19.04
2023-03-25T09:06:09.202Z,19.06
2023-03-25T09:08:39.869Z,19.09
2023-03-25T09:11:06.666Z,19.11
2023-03-25T09:13:33.241Z,19.12
2023-03-25T09:15:59.786Z,19.13
2023-03-25T09:18:26.375Z,19.14
2023-03-25T09:20:57.961Z,19.15
2023-03-25T09:23:24.674Z,19.15
2023-03-25T09:25:51.391Z,19.18
2023-03-25T09:28:18.147Z,19.20
2023-03-25T09:30:44.714Z,19.18
2023-03-25T09:33:12.153Z,19.18
2023-03-25T09:35:40.843Z,19.21
2023-03-25T09:38:07.512Z,19.22
2023-03-25T09:40:34.245Z,19.22
2023-03-25T09:43:15.397Z,19.19
2023-03-25T09:45:49.987Z,19.19
2023-03-25T09:48:25.867Z,19.17
2023-03-25T09:50:53.628Z,19.17
2023-03-25T09:53:37.706Z,19.13
2023-03-25T09:56:10.641Z,19.14
2023-03-25T09:58:46.188Z,19.11
2023-03-25T10:01:27.652Z,19.11
2023-03-25T10:04:20.302Z,19.09
2023-03-25T10:07:14.825Z,19.07
2023-03-25T10:09:47.340Z,19.13
2023-03-25T10:12:37.522Z,19.18
2023-03-25T10:15:25.020Z,19.25
2023-03-25T10:18:09.634Z,19.30
2023-03-25T10:21:11.257Z,19.35
2023-03-25T10:24:19.151Z,19.41
2023-03-25T10:26:48.666Z,19.48
2023-03-25T10:29:21.430Z,19.52
2023-03-25T10:31:56.733Z,19.54
2023-03-25T10:34:46.694Z,19.57
2023-03-25T10:37:18.091Z,19.60
2023-03-25T10:39:47.319Z,19.62
2023-03-25T10:42:34.887Z,19.62
2023-03-25T10:45:01.541Z,19.66
2023-03-25T10:47:36.389Z,19.69
2023-03-25T10:50:04.542Z,19.71
2023-03-25T10:52:31.218Z,19.72
2023-03-25T10:54:58.720Z,19.66
2023-03-25T10:57:32.223Z,19.58
2023-03-25T11:00:18.826Z,19.53
2023-03-25T11:02:46.990Z,19.58
2023-03-25T11:05:18.974Z,19.65
2023-03-25T11:07:55.149Z,19.75
2023-03-25T11:10:28.272Z,19.83
2023-03-25T11:12:58.424Z,19.89
2023-03-25T11:15:29.715Z,19.96
2023-03-25T11:18:22.175Z,20.00
2023-03-25T11:20:56.524Z,20.05
2023-03-25T11:23:31.118Z,20.10
2023-03-25T11:26:06.175Z,20.15
2023-03-25T11:28:38.147Z,20.23
2023-03-25T11:31:17.242Z,20.25
2023-03-25T11:33:46.728Z,20.32
2023-03-25T11:36:17.739Z,20.35
2023-03-25T11:38:50.922Z,20.41
2023-03-25T11:41:17.562Z,20.45
2023-03-25T11:43:48.847Z,20.50
2023-03-25T11:46:18.909Z,20.55
2023-03-25T11:48:46.851Z,20.58
2023-03-25T11:51:16.412Z,20.60
2023-03-25T11:53:59.300Z,20.63
2023-03-25T11:56:38.261Z,20.66
2023-03-25T11:59:25.858Z,20.69
2023-03-25T12:02:01.842Z,20.70
2023-03-25T12:04:29.699Z,20.73
2023-03-25T12:07:02.043Z,20.76
2023-03-25T12:09:31.724Z,20.77
2023-03-25T12:12:36.569Z,20.79
2023-03-25T12:15:08.967Z,20.83
2023-03-25T12:17:59.554Z,20.83
2023-03-25T12:20:29.926Z,20.89
2023-03-25T12:23:15.502Z,20.89
2023-03-25T12:25:53.814Z,20.90
2023-03-25T12:28:47.775Z,20.94
2023-03-25T12:31:48.354Z,20.95
2023-03-25T12:34:44.815Z,20.97
2023-03-25T12:37:42.101Z,20.97
2023-03-25T12:40:23.727Z,21.00
2023-03-25T12:43:00.375Z,21.03
2023-03-25T12:45:39.679Z,21.07
2023-03-25T12:48:12.345Z,21.10
2023-03-25T12:51:03.362Z,21.13
2023-03-25T12:53:48.524Z,21.19
2023-03-25T12:57:06.362Z,21.18
2023-03-25T12:59:36.388Z,21.18
2023-03-25T13:02:14.729Z,21.15
2023-03-25T13:05:08.965Z,21.11
2023-03-25T13:07:38.671Z,21.05
2023-03-25T13:10:27.790Z,21.00
2023-03-25T13:12:59.620Z,20.95
2023-03-25T13:15:36.619Z,20.90
2023-03-25T13:18:22.439Z,20.87
2023-03-25T13:20:58.975Z,20.85
2023-03-25T13:23:29.050Z,20.81
2023-03-25T13:26:01.093Z,20.78
2023-03-25T13:28:38.320Z,20.72
2023-03-25T13:31:08.324Z,20.67
2023-03-25T13:33:43.064Z,20.62
2023-03-25T13:36:16.073Z,20.59
2023-03-25T13:38:56.493Z,20.57
2023-03-25T13:41:28.337Z,20.55
2023-03-25T13:44:16.941Z,20.50
2023-03-25T13:46:48.432Z,20.49
2023-03-25T13:49:27.695Z,20.42
2023-03-25T13:51:54.960Z,20.39
2023-03-25T13:54:47.016Z,20.32
2023-03-25T13:57:13.579Z,20.29
2023-03-25T14:00:14.679Z,20.26
2023-03-25T14:02:47.150Z,20.31
2023-03-25T14:05:51.518Z,20.32
2023-03-25T14:08:22.590Z,20.38
2023-03-25T14:11:23.047Z,20.44
2023-03-25T14:13:55.737Z,20.48
2023-03-25T14:16:27.210Z,20.50
2023-03-25T14:18:59.905Z,20.53
2023-03-25T14:21:27.102Z,20.55
2023-03-25T14:24:28.499Z,20.57
2023-03-25T14:27:05.686Z,20.60
2023-03-25T14:29:46.429Z,20.63
2023-03-25T14:32:16.050Z,20.66
2023-03-25T14:34:44.488Z,20.67
2023-03-25T14:37:34.145Z,20.69
2023-03-25T14:40:21.970Z,20.70
2023-03-25T14:42:59.906Z,20.74
2023-03-25T14:45:32.470Z,20.75
2023-03-25T14:48:00.629Z,20.76
2023-03-25T14:50:29.846Z,20.78
2023-03-25T14:53:05.105Z,20.78
2023-03-25T14:55:44.061Z,20.79
2023-03-25T14:58:27.758Z,20.79
2023-03-25T15:01:00.158Z,20.75
2023-03-25T15:04:07.797Z,20.65
2023-03-25T15:06:34.981Z,20.66
2023-03-25T15:09:09.619Z,20.69
2023-03-25T15:11:38.864Z,20.73
2023-03-25T15:14:19.046Z,20.79
2023-03-25T15:16:48.686Z,20.85
2023-03-25T15:19:17.626Z,20.91
2023-03-25T15:22:02.905Z,20.96
2023-03-25T15:24:33.942Z,21.02
2023-03-25T15:27:08.489Z,21.05
2023-03-25T15:29:54.960Z,21.06
2023-03-25T15:32:53.063Z,21.06
2023-03-25T15:35:48.536Z,21.06
2023-03-25T15:38:30.990Z,21.04
2023-03-25T15:41:11.333Z,21.04
2023-03-25T15:44:22.693Z,21.02
2023-03-25T15:47:25.780Z,21.01
2023-03-25T15:50:17.015Z,21.00
2023-03-25T15:53:41.396Z,20.97
2023-03-25T15:56:15.973Z,20.95
2023-03-25T15:59:24.548Z,20.91
2023-03-25T16:01:52.947Z,20.90
2023-03-25T16:04:40.525Z,20.86
2023-03-25T16:07:12.183Z,20.85
2023-03-25T16:09:44.718Z,20.84
2023-03-25T16:12:11.984Z,20.80
2023-03-25T16:14:39.538Z,20.75
2023-03-25T16:17:08.823Z,20.71
2023-03-25T16:19:41.677Z,20.68
2023-03-25T16:22:20.476Z,20.68
2023-03-25T16:24:48.776Z,20.72
2023-03-25T16:27:34.380Z,20.78
2023-03-25T16:30:01.355Z,20.85
2023-03-25T16:32:33.994Z,20.93
2023-03-25T16:35:00.885Z,20.99
2023-03-25T16:37:28.655Z,20.99
2023-03-25T16:39:57.595Z,20.92
2023-03-25T16:42:34.332Z,20.86
2023-03-25T16:45:02.432Z,20.84
2023-03-25T16:47:33.297Z,20.82
2023-03-25T16:50:01.590Z,20.79
2023-03-25T16:52:31.887Z,20.77
2023-03-25T16:54:58.390Z,20.76
2023-03-25T16:57:32.534Z,20.74
2023-03-25T17:00:17.212Z,20.73
2023-03-25T17:02:45.867Z,20.72
2023-03-25T17:05:20.519Z,20.70
2023-03-25T17:07:50.028Z,20.70
2023-03-25T17:10:25.435Z,20.66
2023-03-25T17:13:11.077Z,20.62
2023-03-25T17:15:38.362Z,20.60
2023-03-25T17:18:14.314Z,20.55
2023-03-25T17:20:43.721Z,20.53
2023-03-25T17:23:19.174Z,20.48
2023-03-25T17:26:00.119Z,20.44
2023-03-25T17:28:58.035Z,20.39
2023-03-25T17:31:30.528Z,20.37
2023-03-25T17:34:11.854Z,20.36
2023-03-25T17:36:42.068Z,20.35
2023-03-25T17:39:21.608Z,20.33
2023-03-25T17:42:01.537Z,20.33
2023-03-25T17:44:39.179Z,20.33
2023-03-25T17:47:08.305Z,20.33
2023-03-25T17:49:35.312Z,20.32
2023-03-25T17:52:02.879Z,20.32
2023-03-25T17:54:29.571Z,20.31
2023-03-25T17:56:56.339Z,20.30
2023-03-25T17:59:27.580Z,20.28
2023-03-25T18:01:54.234Z,20.25
2023-03-25T18:04:21.873Z,20.23
2023-03-25T18:06:48.898Z,20.24
2023-03-25T18:09:24.806Z,20.25
2023-03-25T18:11:54.465Z,20.26
2023-03-25T18:14:22.293Z,20.28
2023-03-25T18:16:50.024Z,20.29
2023-03-25T18:19:31.072Z,20.25
2023-03-25T18:22:01.990Z,20.24
2023-03-25T18:24:34.127Z,20.20
2023-03-25T18:27:00.716Z,20.18
2023-03-25T18:29:30.511Z,20.15
2023-03-25T18:31:58.057Z,20.10
2023-03-25T18:34:26.057Z,20.05
2023-03-25T18:36:53.982Z,20.01
2023-03-25T18:39:26.172Z,19.97
2023-03-25T18:41:52.818Z,19.94
2023-03-25T18:44:19.689Z,19.88
2023-03-25T18:46:46.657Z,19.86
2023-03-25T18:49:16.786Z,19.81
2023-03-25T18:51:43.844Z,19.78
2023-03-25T18:54:11.064Z,19.75
2023-03-25T18:56:37.927Z,19.71
2023-03-25T18:59:04.490Z,19.68
2023-03-25T19:01:31.024Z,19.64
2023-03-25T19:04:02.553Z,19.60
2023-03-25T19:06:30.393Z,19.59
2023-03-25T19:08:57.458Z,19.53
2023-03-25T19:11:24.562Z,19.50
2023-03-25T19:13:52.122Z,19.46
2023-03-25T19:16:22.019Z,19.43
2023-03-25T19:18:48.826Z,19.40
2023-03-25T19:21:17.688Z,19.37
2023-03-25T19:23:44.449Z,19.35
2023-03-25T19:26:12.189Z,19.32
2023-03-25T19:28:39.040Z,19.29
2023-03-25T19:31:05.636Z,19.27
2023-03-25T19:33:32.451Z,19.23
2023-03-25T19:36:01.474Z,19.19
2023-03-25T19:38:28.714Z,19.18
2023-03-25T19:41:10.484Z,19.14
2023-03-25T19:43:37.635Z,19.16
2023-03-25T19:46:08.077Z,19.13
2023-03-25T19:48:35.517Z,19.09
2023-03-25T19:51:02.276Z,19.07
2023-03-25T19:53:29.323Z,19.05
2023-03-25T19:55:56.779Z,19.03
2023-03-25T19:58:25.941Z,19.01
2023-03-25T20:00:53.034Z,18.99
2023-03-25T20:03:24.024Z,18.96
2023-03-25T20:05:57.476Z,18.93
2023-03-25T20:08:25.788Z,18.92
2023-03-25T20:10:53.648Z,18.88
2023-03-25T20:13:20.825Z,18.87
2023-03-25T20:15:50.768Z,18.86
2023-03-25T20:18:18.174Z,18.84
2023-03-25T20:20:44.752Z,18.82
2023-03-25T20:23:11.657Z,18.79
2023-03-25T20:25:38.478Z,18.75
2023-03-25T20:28:05.984Z,18.74
2023-03-25T20:30:36.026Z,18.72
2023-03-25T20:33:02.725Z,18.71
2023-03-25T20:35:30.395Z,18.68
2023-03-25T20:37:57.558Z,18.66
2023-03-25T20:40:33.871Z,18.66
2023-03-25T20:43:04.546Z,18.63
2023-03-25T20:45:32.808Z,18.61
2023-03-25T20:47:59.687Z,18.58
2023-03-25T20:50:27.156Z,18.58
2023-03-25T20:52:53.893Z,18.56
2023-03-25T20:55:21.062Z,18.55
2023-03-25T20:57:47.577Z,18.54
2023-03-25T21:00:14.563Z,18.54
2023-03-25T21:02:41.732Z,18.54
2023-03-25T21:05:08.664Z,18.53
2023-03-25T21:07:35.519Z,18.50
2023-03-25T21:10:02.311Z,18.50
2023-03-25T21:12:40.495Z,18.49
2023-03-25T21:15:10.263Z,18.50
2023-03-25T21:17:37.221Z,18.49
2023-03-25T21:20:07.550Z,18.48
2023-03-25T21:22:34.844Z,18.48
2023-03-25T21:25:01.493Z,18.46
2023-03-25T21:27:38.991Z,18.46
2023-03-25T21:30:07.916Z,18.45
2023-03-25T21:32:34.655Z,18.44
2023-03-25T21:35:01.226Z,18.43
2023-03-25T21:37:28.997Z,18.42
2023-03-25T21:39:57.977Z,18.40
2023-03-25T21:42:24.873Z,18.40
2023-03-25T21:44:51.588Z,18.38
2023-03-25T21:47:18.271Z,18.38
2023-03-25T21:49:44.809Z,18.36
2023-03-25T21:52:14.760Z,18.35
2023-03-25T21:54:43.370Z,18.34
2023-03-25T21:57:11.395Z,18.33
2023-03-25T21:59:38.427Z,18.31
2023-03-25T22:02:05.851Z,18.30
2023-03-25T22:04:34.760Z,18.29
2023-03-25T22:07:01.336Z,18.28
2023-03-25T22:09:27.813Z,18.28
2023-03-25T22:11:54.415Z,18.28
2023-03-25T22:14:20.910Z,18.25
2023-03-25T22:16:47.478Z,18.24
2023-03-25T22:19:14.131Z,18.25
2023-03-25T22:21:40.816Z,18.24
2023-03-25T22:24:08.105Z,18.24
2023-03-25T22:26:36.759Z,18.25
2023-03-25T22:29:06.076Z,18.24
2023-03-25T22:31:39.298Z,18.25
2023-03-25T22:34:11.848Z,18.25
2023-03-25T22:36:40.784Z,18.24
2023-03-25T22:39:07.640Z,18.25
2023-03-25T22:41:34.267Z,18.23
2023-03-25T22:44:00.877Z,18.22
2023-03-25T22:46:27.479Z,18.23
2023-03-25T22:48:54.022Z,18.22
2023-03-25T22:51:21.173Z,18.22
2023-03-25T22:53:48.415Z,18.23
2023-03-25T22:56:15.142Z,18.22
2023-03-25T22:58:41.990Z,18.21
2023-03-25T23:01:23.978Z,18.20
2023-03-25T23:03:51.575Z,18.21
2023-03-25T23:06:18.237Z,18.22
2023-03-25T23:08:45.201Z,18.21
2023-03-25T23:11:20.482Z,18.20
2023-03-25T23:13:51.430Z,18.19
2023-03-25T23:16:20.048Z,18.20
2023-03-25T23:18:46.826Z,18.20
2023-03-25T23:21:15.916Z,18.19
2023-03-25T23:23:53.414Z,18.20
2023-03-25T23:26:24.828Z,18.20
2023-03-25T23:28:53.061Z,18.20
2023-03-25T23:31:29.061Z,18.19
2023-03-25T23:33:58.923Z,18.19
2023-03-25T23:36:28.174Z,18.20
2023-03-25T23:38:55.090Z,18.20
2023-03-25T23:41:23.207Z,18.19
2023-03-25T23:43:50.964Z,18.19
2023-03-25T23:46:18.581Z,18.19
2023-03-25T23:48:46.045Z,18.19
2023-03-25T23:51:18.170Z,18.18
2023-03-25T23:53:46.932Z,18.18
2023-03-25T23:56:15.829Z,18.17
2023-03-25T23:58:43.022Z,18.16
